createdAt,value
2023-04-30T00:01:00.739Z,6.72
2023-04-30T00:03:47.257Z,6.69
2023-04-30T00:06:34.211Z,6.66
2023-04-30T00:09:20.855Z,6.63
2023-04-30T00:12:07.255Z,6.57
2023-04-30T00:14:56.298Z,6.50
2023-04-30T00:17:42.854Z,6.50
2023-04-30T00:20:29.387Z,6.46
2023-04-30T00:23:15.630Z,6.44
2023-04-30T00:26:02.747Z,6.40
2023-04-30T00:28:49.226Z,6.37
2023-04-30T00:31:35.797Z,6.29
2023-04-30T00:34:22.332Z,6.29
2023-04-30T00:37:09.092Z,6.27
2023-04-30T00:39:55.700Z,6.25
2023-04-30T00:42:42.752Z,6.22
2023-04-30T00:45:29.306Z,6.17
2023-04-30T00:48:16.719Z,6.10
2023-04-30T00:51:04.582Z,6.04
2023-04-30T00:53:51.235Z,6.01
2023-04-30T00:56:37.719Z,5.98
2023-04-30T00:59:25.356Z,5.92
2023-04-30T01:02:13.514Z,5.87
2023-04-30T01:05:00.006Z,5.81
2023-04-30T01:07:46.487Z,5.78
2023-04-30T01:10:56.556Z,5.75
2023-04-30T01:14:10.726Z,5.68
2023-04-30T01:17:08.805Z,5.63
2023-04-30T01:19:56.448Z,5.57
2023-04-30T01:22:52.838Z,5.53
2023-04-30T01:25:39.369Z,5.52
2023-04-30T01:28:28.573Z,5.50
2023-04-30T01:31:16.622Z,5.48
2023-04-30T01:34:02.926Z,5.46
2023-04-30T01:37:01.452Z,5.43
2023-04-30T01:40:00.896Z,5.45
2023-04-30T01:43:34.022Z,5.44
2023-04-30T01:46:30.510Z,5.38
2023-04-30T01:49:51.929Z,5.33
2023-04-30T01:52:46.444Z,5.29
2023-04-30T01:55:35.683Z,5.25
2023-04-30T01:58:24.761Z,5.16
2023-04-30T02:01:29.903Z,5.14
2023-04-30T02:04:16.493Z,5.11
2023-04-30T02:07:02.868Z,5.10
2023-04-30T02:09:49.464Z,5.07
2023-04-30T02:12:36.215Z,5.04
2023-04-30T02:15:23.197Z,5.02
2023-04-30T02:18:09.847Z,4.99
2023-04-30T02:20:56.489Z,4.94
2023-04-30T02:23:42.931Z,4.89
2023-04-30T02:26:29.382Z,4.84
2023-04-30T02:29:16.072Z,4.74
2023-04-30T02:32:02.692Z,4.65
2023-04-30T02:34:49.828Z,4.59
2023-04-30T02:37:36.290Z,4.58
2023-04-30T02:40:23.267Z,4.55
2023-04-30T02:43:09.866Z,4.50
2023-04-30T02:45:56.862Z,4.46
2023-04-30T02:48:43.461Z,4.42
2023-04-30T02:51:29.787Z,4.37
2023-04-30T02:54:16.361Z,4.32
2023-04-30T02:57:03.283Z,4.29
2023-04-30T02:59:50.053Z,4.27
2023-04-30T03:02:36.811Z,4.21
2023-04-30T03:05:24.184Z,4.11
2023-04-30T03:08:10.799Z,4.11
2023-04-30T03:10:57.352Z,4.11
2023-04-30T03:13:43.864Z,4.09
2023-04-30T03:16:31.179Z,4.08
2023-04-30T03:19:22.170Z,4.04
2023-04-30T03:22:10.959Z,4.00
2023-04-30T03:24:57.148Z,3.97
2023-04-30T03:27:43.869Z,3.97
2023-04-30T03:30:30.322Z,3.98
2023-04-30T03:33:17.022Z,3.98
2023-04-30T03:36:03.845Z,3.96
2023-04-30T03:38:50.360Z,4.00
2023-04-30T03:41:37.156Z,4.00
2023-04-30T03:44:23.630Z,3.94
2023-04-30T03:47:10.887Z,4.03
2023-04-30T03:49:57.781Z,4.07
2023-04-30T03:52:45.878Z,4.12
2023-04-30T03:55:34.301Z,4.15
2023-04-30T03:58:21.436Z,4.18
2023-04-30T04:01:08.128Z,4.21
2023-04-30T04:03:54.713Z,4.25
2023-04-30T04:06:41.871Z,4.34
2023-04-30T04:09:28.518Z,4.33
2023-04-30T04:12:15.152Z,4.49
2023-04-30T04:15:01.704Z,4.54
2023-04-30T04:17:48.884Z,4.60
2023-04-30T04:20:35.408Z,4.64
2023-04-30T04:23:22.678Z,4.73
2023-04-30T04:26:08.810Z,4.79
2023-04-30T04:28:55.550Z,4.83
2023-04-30T04:31:42.914Z,4.87
2023-04-30T04:34:30.586Z,4.90
2023-04-30T04:37:17.749Z,4.95
2023-04-30T04:40:05.240Z,5.05
2023-04-30T04:42:52.120Z,5.10
2023-04-30T04:45:40.766Z,5.13
2023-04-30T04:48:27.321Z,5.21
2023-04-30T04:51:13.876Z,5.25
2023-04-30T04:54:00.199Z,5.35
2023-04-30T04:56:47.200Z,5.42
2023-04-30T04:59:34.855Z,5.47
2023-04-30T05:02:23.322Z,5.54
2023-04-30T05:05:11.063Z,5.63
2023-04-30T05:07:57.579Z,5.70
2023-04-30T05:10:44.069Z,5.78
2023-04-30T05:13:30.383Z,5.86
2023-04-30T05:16:17.495Z,5.94
2023-04-30T05:19:03.936Z,6.04
2023-04-30T05:21:51.302Z,6.15
2023-04-30T05:24:38.158Z,6.26
2023-04-30T05:27:24.625Z,6.35
2023-04-30T05:30:11.628Z,6.42
2023-04-30T05:32:58.215Z,6.52
2023-04-30T05:35:44.856Z,6.63
2023-04-30T05:38:31.309Z,6.76
2023-04-30T05:41:17.865Z,6.91
2023-04-30T05:44:05.242Z,7.02
2023-04-30T05:46:51.691Z,7.09
2023-04-30T05:49:38.082Z,7.16
2023-04-30T05:52:24.450Z,7.25
2023-04-30T05:55:11.281Z,7.33
2023-04-30T05:57:57.900Z,7.40
2023-04-30T06:00:44.516Z,7.47
2023-04-30T06:03:31.460Z,7.52
2023-04-30T06:06:17.796Z,7.63
2023-04-30T06:09:04.213Z,7.74
2023-04-30T06:11:52.151Z,7.84
2023-04-30T06:14:39.227Z,7.91
2023-04-30T06:17:25.746Z,7.95
2023-04-30T06:20:12.439Z,8.09
2023-04-30T06:23:00.202Z,8.19
2023-04-30T06:25:46.710Z,8.28
2023-04-30T06:28:33.001Z,8.37
2023-04-30T06:31:19.323Z,8.45
2023-04-30T06:34:05.919Z,8.55
2023-04-30T06:36:52.613Z,8.59
2023-04-30T06:39:38.982Z,8.64
2023-04-30T06:42:25.224Z,8.70
2023-04-30T06:45:15.239Z,8.81
2023-04-30T06:48:02.015Z,9.02
2023-04-30T06:50:48.308Z,9.18
2023-04-30T06:53:34.893Z,9.26
2023-04-30T06:56:22.122Z,9.31
2023-04-30T06:59:08.795Z,9.36
2023-04-30T07:01:55.580Z,9.45
2023-04-30T07:04:42.250Z,9.55
2023-04-30T07:07:29.031Z,9.65
2023-04-30T07:10:15.929Z,9.76
2023-04-30T07:13:02.141Z,9.90
2023-04-30T07:15:48.706Z,10.04
2023-04-30T07:18:35.340Z,10.19
2023-04-30T07:21:22.004Z,10.25
2023-04-30T07:24:08.779Z,10.29
2023-04-30T07:26:54.992Z,10.40
2023-04-30T07:29:41.488Z,10.36
2023-04-30T07:32:27.861Z,10.37
2023-04-30T07:35:14.873Z,10.33
2023-04-30T07:38:01.003Z,10.28
2023-04-30T07:40:47.459Z,10.25
2023-04-30T07:43:34.064Z,10.50
2023-04-30T07:46:20.577Z,10.65
2023-04-30T07:49:06.938Z,10.65
2023-04-30T07:51:53.375Z,10.81
2023-04-30T07:54:40.148Z,10.99
2023-04-30T07:57:27.092Z,11.09
2023-04-30T08:00:15.220Z,11.14
2023-04-30T08:03:02.200Z,11.14
2023-04-30T08:05:49.206Z,11.27
2023-04-30T08:08:35.736Z,11.27
2023-04-30T08:11:21.958Z,11.17
2023-04-30T08:14:08.184Z,11.20
2023-04-30T08:16:54.390Z,11.34
2023-04-30T08:19:40.877Z,11.45
2023-04-30T08:22:27.403Z,11.41
2023-04-30T08:25:13.932Z,11.63
2023-04-30T08:28:00.769Z,11.77
2023-04-30T08:30:47.253Z,11.92
2023-04-30T08:33:33.783Z,11.90
2023-04-30T08:36:20.440Z,11.85
2023-04-30T08:39:08.008Z,11.85
2023-04-30T08:41:56.680Z,12.01
2023-04-30T08:44:46.029Z,12.03
2023-04-30T08:47:33.056Z,12.04
2023-04-30T08:50:19.685Z,11.97
2023-04-30T08:53:08.685Z,11.95
2023-04-30T08:55:55.238Z,12.02
2023-04-30T08:58:41.602Z,12.09
2023-04-30T09:01:31.089Z,12.10
2023-04-30T09:04:17.981Z,12.14
2023-04-30T09:07:05.576Z,12.23
2023-04-30T09:09:53.971Z,12.36
2023-04-30T09:12:43.444Z,12.49
2023-04-30T09:15:31.113Z,12.52
2023-04-30T09:18:18.877Z,12.42
2023-04-30T09:21:08.930Z,12.42
2023-04-30T09:23:57.436Z,12.45
2023-04-30T09:26:44.335Z,12.67
2023-04-30T09:29:37.180Z,12.77
2023-04-30T09:32:23.871Z,12.75
2023-04-30T09:35:29.762Z,12.75
2023-04-30T09:38:30.369Z,12.74
2023-04-30T09:41:28.501Z,12.72
2023-04-30T09:44:30.058Z,12.74
2023-04-30T09:47:19.177Z,12.81
2023-04-30T09:50:06.133Z,12.84
2023-04-30T09:52:54.108Z,12.84
2023-04-30T09:55:45.946Z,12.84
2023-04-30T09:58:37.271Z,12.74
2023-04-30T10:01:28.126Z,12.94
2023-04-30T10:04:15.700Z,13.25
2023-04-30T10:07:05.890Z,13.52
2023-04-30T10:10:11.135Z,13.26
2023-04-30T10:13:06.452Z,13.01
2023-04-30T10:15:59.001Z,13.05
2023-04-30T10:18:50.701Z,13.16
2023-04-30T10:21:41.843Z,13.25
2023-04-30T10:24:29.124Z,13.19
2023-04-30T10:27:15.990Z,13.11
2023-04-30T10:30:03.089Z,13.11
2023-04-30T10:32:55.676Z,13.21
2023-04-30T10:35:55.173Z,13.38
2023-04-30T10:38:41.907Z,13.49
2023-04-30T10:41:29.537Z,13.54
2023-04-30T10:44:22.189Z,13.54
2023-04-30T10:47:08.724Z,13.71
2023-04-30T10:50:03.312Z,13.74
2023-04-30T10:53:03.233Z,13.76
2023-04-30T10:56:01.271Z,13.70
2023-04-30T10:58:50.737Z,13.74
2023-04-30T11:01:58.271Z,13.76
2023-04-30T11:05:06.765Z,13.81
2023-04-30T11:07:59.475Z,13.85
2023-04-30T11:11:01.787Z,14.01
2023-04-30T11:13:59.042Z,14.25
2023-04-30T11:16:49.514Z,14.57
2023-04-30T11:19:36.166Z,14.62
2023-04-30T11:22:24.637Z,14.32
2023-04-30T11:25:15.587Z,13.90
2023-04-30T11:28:02.207Z,13.77
2023-04-30T11:30:59.799Z,13.73
2023-04-30T11:33:46.442Z,13.74
2023-04-30T11:36:34.895Z,13.66
2023-04-30T11:39:22.507Z,13.69
2023-04-30T11:42:09.368Z,13.87
2023-04-30T11:45:03.040Z,14.13
2023-04-30T11:47:54.740Z,14.44
2023-04-30T11:50:43.151Z,14.69
2023-04-30T11:53:29.656Z,14.70
2023-04-30T11:56:22.043Z,14.77
2023-04-30T11:59:12.655Z,14.78
2023-04-30T12:01:59.134Z,14.72
2023-04-30T12:04:47.196Z,14.62
2023-04-30T12:07:34.322Z,14.60
2023-04-30T12:10:20.923Z,14.96
2023-04-30T12:13:07.402Z,15.95
2023-04-30T12:15:59.325Z,16.95
2023-04-30T12:18:46.924Z,17.55
2023-04-30T12:21:34.546Z,18.18
2023-04-30T12:24:21.272Z,18.79
2023-04-30T12:27:08.049Z,19.34
2023-04-30T12:29:56.570Z,19.71
2023-04-30T12:32:44.885Z,19.87
2023-04-30T12:35:32.220Z,20.16
2023-04-30T12:38:18.866Z,20.63
2023-04-30T12:41:05.351Z,20.93
2023-04-30T12:43:51.752Z,21.48
2023-04-30T12:46:38.280Z,22.02
2023-04-30T12:49:27.449Z,22.30
2023-04-30T12:52:14.203Z,22.68
2023-04-30T12:55:28.538Z,23.33
2023-04-30T12:58:16.636Z,24.06
2023-04-30T13:01:03.096Z,24.29
2023-04-30T13:03:49.814Z,24.36
2023-04-30T13:06:36.846Z,24.52
2023-04-30T13:09:22.973Z,24.86
2023-04-30T13:12:09.618Z,25.25
2023-04-30T13:14:57.406Z,25.57
2023-04-30T13:17:44.694Z,25.95
2023-04-30T13:20:31.218Z,26.34
2023-04-30T13:23:18.186Z,26.71
2023-04-30T13:26:04.858Z,26.79
2023-04-30T13:28:51.569Z,26.56
2023-04-30T13:31:38.114Z,26.38
2023-04-30T13:34:24.675Z,27.01
2023-04-30T13:37:11.325Z,27.14
2023-04-30T13:39:59.503Z,27.17
2023-04-30T13:42:47.434Z,27.39
2023-04-30T13:45:34.178Z,27.47
2023-04-30T13:48:20.732Z,27.49
2023-04-30T13:51:07.476Z,27.85
2023-04-30T13:53:53.871Z,28.45
2023-04-30T13:56:40.530Z,28.52
2023-04-30T13:59:26.938Z,28.70
2023-04-30T14:02:13.580Z,28.92
2023-04-30T14:05:05.901Z,28.99
2023-04-30T14:07:53.109Z,28.64
2023-04-30T14:10:39.798Z,28.84
2023-04-30T14:13:25.865Z,29.01
2023-04-30T14:16:12.481Z,29.10
2023-04-30T14:18:59.133Z,29.21
2023-04-30T14:21:46.687Z,29.80
2023-04-30T14:24:34.153Z,29.87
2023-04-30T14:27:21.230Z,29.98
2023-04-30T14:30:09.268Z,30.31
2023-04-30T14:32:55.968Z,30.38
2023-04-30T14:35:42.945Z,30.26
2023-04-30T14:38:29.216Z,30.23
2023-04-30T14:41:16.475Z,30.47
2023-04-30T14:44:04.447Z,30.98
2023-04-30T14:46:51.432Z,31.52
2023-04-30T14:49:38.150Z,31.57
2023-04-30T14:52:25.014Z,31.42
2023-04-30T14:55:11.451Z,31.17
2023-04-30T14:57:58.890Z,31.04
2023-04-30T15:00:46.313Z,30.75
2023-04-30T15:03:32.819Z,30.76
2023-04-30T15:06:19.308Z,30.95
2023-04-30T15:09:06.543Z,31.08
2023-04-30T15:11:53.014Z,31.67
2023-04-30T15:14:39.613Z,32.12
2023-04-30T15:17:26.171Z,32.03
2023-04-30T15:20:12.444Z,31.15
2023-04-30T15:22:59.188Z,30.45
2023-04-30T15:25:45.856Z,29.98
2023-04-30T15:28:32.873Z,29.10
2023-04-30T15:31:19.489Z,27.13
2023-04-30T15:34:06.028Z,24.66
2023-04-30T15:36:52.615Z,22.61
2023-04-30T15:39:39.792Z,21.17
2023-04-30T15:42:26.402Z,20.31
2023-04-30T15:45:13.359Z,19.82
2023-04-30T15:48:00.660Z,19.01
2023-04-30T15:50:47.420Z,18.34
2023-04-30T15:53:34.090Z,18.02
2023-04-30T15:56:25.721Z,17.59
2023-04-30T15:59:17.558Z,17.18
2023-04-30T16:02:06.564Z,16.96
2023-04-30T16:04:52.993Z,16.79
2023-04-30T16:07:41.240Z,17.22
2023-04-30T16:10:29.116Z,18.87
2023-04-30T16:13:15.886Z,20.40
2023-04-30T16:16:03.421Z,21.92
2023-04-30T16:18:50.998Z,23.27
2023-04-30T16:21:38.574Z,22.90
2023-04-30T16:24:25.141Z,23.49
2023-04-30T16:27:11.845Z,25.23
2023-04-30T16:29:58.698Z,26.61
2023-04-30T16:32:45.120Z,27.55
2023-04-30T16:35:31.660Z,28.42
2023-04-30T16:38:18.570Z,28.90
2023-04-30T16:41:04.962Z,28.66
2023-04-30T16:43:51.698Z,28.47
2023-04-30T16:46:38.512Z,28.07
2023-04-30T16:49:25.555Z,27.56
2023-04-30T16:52:12.731Z,26.92
2023-04-30T16:54:59.394Z,24.59
2023-04-30T16:57:46.185Z,22.75
2023-04-30T17:00:32.750Z,21.53
2023-04-30T17:03:19.286Z,21.01
2023-04-30T17:06:06.791Z,21.77
2023-04-30T17:08:54.421Z,22.91
2023-04-30T17:11:41.480Z,23.80
2023-04-30T17:14:28.565Z,24.53
2023-04-30T17:17:15.146Z,24.88
2023-04-30T17:20:01.607Z,25.22
2023-04-30T17:22:47.811Z,25.12
2023-04-30T17:25:34.196Z,24.82
2023-04-30T17:28:20.936Z,24.49
2023-04-30T17:31:09.303Z,22.98
2023-04-30T17:33:55.915Z,20.71
2023-04-30T17:36:42.872Z,19.19
2023-04-30T17:39:32.449Z,17.78
2023-04-30T17:42:19.673Z,16.59
2023-04-30T17:45:07.193Z,15.73
2023-04-30T17:47:53.814Z,15.02
2023-04-30T17:50:40.510Z,14.44
2023-04-30T17:53:27.167Z,13.91
2023-04-30T17:56:13.658Z,13.51
2023-04-30T17:59:00.655Z,13.18
2023-04-30T18:01:47.165Z,12.87
2023-04-30T18:04:34.336Z,12.54
2023-04-30T18:07:20.602Z,12.26
2023-04-30T18:10:08.354Z,12.01
2023-04-30T18:12:54.945Z,11.82
2023-04-30T18:15:41.429Z,11.62
2023-04-30T18:18:28.012Z,11.44
2023-04-30T18:21:14.905Z,11.26
2023-04-30T18:24:01.829Z,11.09
2023-04-30T18:26:47.924Z,10.91
2023-04-30T18:29:35.549Z,10.69
2023-04-30T18:32:22.002Z,10.56
2023-04-30T18:35:09.103Z,10.42
2023-04-30T18:37:55.949Z,10.29
2023-04-30T18:40:42.462Z,10.16
2023-04-30T18:43:29.014Z,10.02
2023-04-30T18:46:15.392Z,9.90
2023-04-30T18:49:03.974Z,9.80
2023-04-30T18:51:50.480Z,9.70
2023-04-30T18:54:37.073Z,9.60
2023-04-30T18:57:24.039Z,9.52
2023-04-30T19:00:13.122Z,9.44
2023-04-30T19:03:00.465Z,9.36
2023-04-30T19:05:47.220Z,9.29
2023-04-30T19:08:34.825Z,9.20
2023-04-30T19:11:21.736Z,9.13
2023-04-30T19:14:08.422Z,9.03
2023-04-30T19:16:55.575Z,8.95
2023-04-30T19:19:42.937Z,8.89
2023-04-30T19:22:29.090Z,8.82
2023-04-30T19:25:15.873Z,8.76
2023-04-30T19:28:02.782Z,8.67
2023-04-30T19:30:56.513Z,8.60
2023-04-30T19:33:43.057Z,8.51
2023-04-30T19:36:29.981Z,8.44
2023-04-30T19:39:16.903Z,8.37
2023-04-30T19:42:04.234Z,8.30
2023-04-30T19:44:54.296Z,8.24
2023-04-30T19:47:41.133Z,8.18
2023-04-30T19:50:27.489Z,8.13
2023-04-30T19:53:16.228Z,8.09
2023-04-30T19:56:02.863Z,8.01
2023-04-30T19:58:49.242Z,7.93
2023-04-30T20:01:36.810Z,7.83
2023-04-30T20:04:23.752Z,7.74
2023-04-30T20:07:10.282Z,7.68
2023-04-30T20:09:56.823Z,7.61
2023-04-30T20:12:43.302Z,7.53
2023-04-30T20:15:30.045Z,7.48
2023-04-30T20:18:16.435Z,7.44
2023-04-30T20:21:02.839Z,7.38
2023-04-30T20:23:49.362Z,7.30
2023-04-30T20:26:36.645Z,7.22
2023-04-30T20:29:23.408Z,7.18
2023-04-30T20:32:09.982Z,7.10
2023-04-30T20:34:56.756Z,7.04
2023-04-30T20:37:43.321Z,6.99
2023-04-30T20:40:29.671Z,6.91
2023-04-30T20:43:16.804Z,6.83
2023-04-30T20:46:03.515Z,6.79
2023-04-30T20:48:49.980Z,6.72
2023-04-30T20:51:38.676Z,6.66
2023-04-30T20:54:25.850Z,6.59
2023-04-30T20:57:12.093Z,6.52
2023-04-30T20:59:58.788Z,6.47
2023-04-30T21:02:45.847Z,6.40
2023-04-30T21:05:32.348Z,6.35
2023-04-30T21:08:18.700Z,6.29
2023-04-30T21:11:05.217Z,6.21
2023-04-30T21:13:52.396Z,6.15
2023-04-30T21:16:40.852Z,6.08
2023-04-30T21:19:27.577Z,6.02
2023-04-30T21:22:13.952Z,5.95
2023-04-30T21:25:00.764Z,5.92
2023-04-30T21:27:47.351Z,5.90
2023-04-30T21:30:33.748Z,5.84
2023-04-30T21:33:20.972Z,5.80
2023-04-30T21:36:07.545Z,5.75
2023-04-30T21:38:55.523Z,5.70
2023-04-30T21:41:41.821Z,5.65
2023-04-30T21:44:32.556Z,5.60
2023-04-30T21:47:18.671Z,5.53
2023-04-30T21:50:05.768Z,5.42
2023-04-30T21:52:52.831Z,5.30
2023-04-30T21:55:39.104Z,5.19
2023-04-30T21:58:26.003Z,5.10
2023-04-30T22:01:13.394Z,5.00
2023-04-30T22:03:59.854Z,4.89
2023-04-30T22:06:47.432Z,4.83
2023-04-30T22:09:34.344Z,4.78
2023-04-30T22:12:21.611Z,4.70
2023-04-30T22:15:09.168Z,4.59
2023-04-30T22:17:55.340Z,4.48
2023-04-30T22:20:42.076Z,4.44
2023-04-30T22:23:28.969Z,4.39
2023-04-30T22:26:15.536Z,4.29
2023-04-30T22:29:01.931Z,4.15
2023-04-30T22:31:48.502Z,4.02
2023-04-30T22:34:40.165Z,3.89
2023-04-30T22:37:26.569Z,3.79
2023-04-30T22:40:13.286Z,3.72
2023-04-30T22:43:01.100Z,3.66
2023-04-30T22:45:50.382Z,3.58
2023-04-30T22:48:37.003Z,3.49
2023-04-30T22:51:23.674Z,3.35
2023-04-30T22:54:10.258Z,3.29
2023-04-30T22:56:56.777Z,3.22
2023-04-30T22:59:43.051Z,3.16
2023-04-30T23:02:30.468Z,3.16
2023-04-30T23:05:17.298Z,3.12
2023-04-30T23:08:04.518Z,3.05
2023-04-30T23:10:53.166Z,3.02
2023-04-30T23:13:40.755Z,2.99
2023-04-30T23:16:27.142Z,2.95
2023-04-30T23:19:13.696Z,2.92
2023-04-30T23:21:59.951Z,2.92
2023-04-30T23:24:46.452Z,2.91
2023-04-30T23:27:34.006Z,2.88
2023-04-30T23:30:21.490Z,2.82
2023-04-30T23:33:08.196Z,2.75
2023-04-30T23:35:54.963Z,2.64
2023-04-30T23:38:42.857Z,2.57
2023-04-30T23:41:29.175Z,2.48
2023-04-30T23:44:15.894Z,2.41
2023-04-30T23:47:02.373Z,2.34
2023-04-30T23:49:48.668Z,2.27
2023-04-30T23:52:36.809Z,2.25
2023-04-30T23:55:23.473Z,2.22
2023-04-30T23:58:09.892Z,2.18
